Аэропорт: Пулково. Санкт-Петербург

ICAO: ULLI

METAR:
2021-01-20 02:30:00
ULLI 200230Z 23002MPS 190V280 9999 BKN043 M05/M07 Q1013 R28L/450538 NOSIG
METAR:
2021-01-19 22:57:00
TAF ULLI 192257Z 2000/2024 18003MPS 6000 BKN016 TEMPO 2000/2004 2000 SHSN BR SCT005 BKN016CB TEMPO 2004/2008 3100 -SHSN BR SCT004 BKN016CB TEMPO 2008/2021 16003MPS -SHSN SCT011 BKN016CB TEMPO 2021/2024 3100 -SHSN BKN011 BKN016CB